Time;durP1;ratioP1;P1;durP2;ratioP2;P2;SDS_P1;SDS_P2;PMS_P1;PMS_P2;Temp;Humidity;BMP_temperature;BMP_pressure;BME280_temperature;BME280_humidity;BME280_pressure;Samples;Min_cycle;Max_cycle;Signal;HPM_P1;HPM_P2
2020/12/29 00:05:08;;;;;;;3.27;1.00;;;19.80;95.10;;;;;;5133405;23;20248;-72
2020/12/29 00:07:35;;;;;;;2.67;1.00;;;19.80;95.20;;;;;;4995206;28;20186;-73
2020/12/29 00:10:03;;;;;;;3.90;0.60;;;19.70;95.00;;;;;;4993440;28;20651;-73
2020/12/29 00:12:30;;;;;;;4.20;1.00;;;19.70;95.40;;;;;;4995053;28;20180;-73
2020/12/29 00:14:58;;;;;;;4.17;1.13;;;19.60;95.10;;;;;;4994927;28;20267;-73
2020/12/29 00:17:25;;;;;;;7.43;2.83;;;19.70;95.70;;;;;;4990164;28;20193;-73
2020/12/29 00:19:52;;;;;;;3.43;1.20;;;19.70;95.20;;;;;;4975140;28;20672;-73
2020/12/29 00:22:20;;;;;;;3.47;1.10;;;19.70;95.50;;;;;;4975260;28;20207;-73
2020/12/29 00:24:47;;;;;;;3.63;1.77;;;19.70;95.90;;;;;;4975936;28;20495;-73
2020/12/29 00:27:14;;;;;;;3.33;1.13;;;19.70;95.50;;;;;;4991830;28;20269;-74
2020/12/29 00:29:42;;;;;;;5.00;1.13;;;19.70;95.30;;;;;;4994758;28;20186;-73
2020/12/29 00:32:09;;;;;;;3.13;1.00;;;19.70;95.60;;;;;;4994801;28;20178;-73
2020/12/29 00:34:37;;;;;;;3.93;0.90;;;19.70;95.40;;;;;;4992589;28;20170;-74
2020/12/29 00:37:04;;;;;;;2.87;0.87;;;19.60;95.20;;;;;;4988729;28;20190;-73
2020/12/29 00:39:31;;;;;;;5.33;1.00;;;19.60;95.40;;;;;;4974811;28;20231;-73
2020/12/29 00:41:59;;;;;;;2.33;0.80;;;19.50;95.60;;;;;;4976030;28;20205;-72
2020/12/29 00:44:29;;;;;;;3.97;0.90;;;19.50;95.60;;;;;;4983782;28;20233;-72
2020/12/29 00:46:56;;;;;;;1.83;0.80;;;19.40;95.60;;;;;;4979086;28;20187;-73
2020/12/29 00:49:23;;;;;;;4.27;1.00;;;19.40;95.70;;;;;;4975385;28;20193;-74
2020/12/29 00:51:53;;;;;;;37.00;32.20;;;19.30;95.20;;;;;;4977124;28;20269;-73
2020/12/29 00:54:22;;;;;;;5.17;3.77;;;19.40;95.80;;;;;;4977088;28;20182;-73
2020/12/29 00:56:49;;;;;;;4.23;1.50;;;19.50;95.70;;;;;;4986810;28;20185;-72
2020/12/29 00:59:16;;;;;;;3.87;1.00;;;19.60;95.40;;;;;;4988196;28;20178;-72
2020/12/29 01:01:44;;;;;;;3.00;1.33;;;19.70;95.30;;;;;;4994213;28;20542;-72
2020/12/29 01:04:11;;;;;;;5.10;1.00;;;19.80;94.80;;;;;;4992833;28;20269;-73
2020/12/29 01:06:38;;;;;;;1.90;0.73;;;19.90;94.90;;;;;;4978432;28;20330;-72
2020/12/29 01:09:06;;;;;;;2.03;0.77;;;19.90;95.20;;;;;;4992487;28;20182;-73
2020/12/29 01:11:33;;;;;;;3.53;0.90;;;19.90;95.00;;;;;;4993759;28;20185;-73
2020/12/29 01:14:01;;;;;;;2.63;0.80;;;19.90;95.00;;;;;;4992888;28;20245;-73
2020/12/29 01:16:28;;;;;;;2.27;0.93;;;19.90;95.40;;;;;;4992304;28;20189;-74
2020/12/29 01:18:55;;;;;;;4.20;0.80;;;20.00;95.30;;;;;;4991753;28;20595;-73
2020/12/29 01:21:23;;;;;;;2.40;0.87;;;20.00;94.90;;;;;;4981254;28;20189;-73
2020/12/29 01:23:51;;;;;;;2.07;0.90;;;20.00;95.40;;;;;;4973490;28;20659;-73
2020/12/29 01:26:23;;;;;;;3.40;0.97;;;20.00;95.20;;;;;;4973699;28;20614;-73
2020/12/29 01:28:51;;;;;;;1.10;0.90;;;20.00;94.90;;;;;;4984926;28;20221;-73
2020/12/29 01:31:29;;;;;;;4.30;1.17;;;20.00;95.00;;;;;;4980861;28;20545;-73
2020/12/29 01:33:57;;;;;;;4.30;1.20;;;20.10;95.00;;;;;;4980799;28;20208;-75
2020/12/29 01:36:25;;;;;;;1.70;0.80;;;20.10;94.90;;;;;;4987727;28;20189;-73
2020/12/29 01:38:54;;;;;;;2.70;0.77;;;20.10;94.60;;;;;;4975709;28;20189;-73
2020/12/29 01:41:22;;;;;;;1.50;0.60;;;20.10;94.80;;;;;;4988179;28;20201;-74
2020/12/29 01:43:52;;;;;;;3.00;0.90;;;20.00;94.80;;;;;;4980666;28;20620;-73
2020/12/29 01:46:20;;;;;;;5.70;0.63;;;20.00;95.30;;;;;;4988643;28;20185;-74
2020/12/29 01:48:47;;;;;;;3.20;0.80;;;20.00;95.10;;;;;;4975811;28;20217;-73
2020/12/29 01:51:15;;;;;;;5.67;1.20;;;19.90;94.90;;;;;;4987170;28;20682;-74
2020/12/29 01:53:42;;;;;;;0.93;0.70;;;19.90;95.40;;;;;;4985616;28;20187;-73
2020/12/29 01:56:15;;;;;;;3.10;1.10;;;20.00;95.30;;;;;;4975748;28;20178;-74
2020/12/29 01:58:43;;;;;;;4.00;0.80;;;20.00;95.20;;;;;;4989872;28;20186;-73
2020/12/29 02:01:10;;;;;;;2.17;0.97;;;20.20;95.50;;;;;;4986337;28;20276;-72
2020/12/29 02:03:38;;;;;;;2.77;1.03;;;20.20;94.90;;;;;;4982492;28;20703;-71
2020/12/29 02:06:05;;;;;;;3.77;1.13;;;20.20;94.80;;;;;;4988395;28;20653;-74
2020/12/29 02:08:33;;;;;;;2.80;0.70;;;20.20;94.60;;;;;;4976949;28;20253;-72
2020/12/29 02:11:01;;;;;;;4.73;0.77;;;20.20;94.70;;;;;;4984119;28;20589;-73
2020/12/29 02:13:29;;;;;;;2.30;0.73;;;20.10;93.90;;;;;;4986452;28;20209;-72
2020/12/29 02:15:56;;;;;;;4.60;0.90;;;20.10;94.20;;;;;;4985513;28;20552;-74
2020/12/29 02:18:23;;;;;;;4.43;1.27;;;20.20;94.50;;;;;;4996761;28;20176;-73
2020/12/29 02:20:51;;;;;;;5.23;1.00;;;20.20;94.10;;;;;;4974550;28;20190;-75
2020/12/29 02:23:18;;;;;;;1.90;0.77;;;20.20;93.80;;;;;;4982828;28;20213;-75
2020/12/29 02:25:46;;;;;;;2.83;1.00;;;20.20;93.60;;;;;;4991412;28;20236;-73
2020/12/29 02:28:13;;;;;;;1.63;0.80;;;20.20;94.00;;;;;;4987673;28;20178;-74
2020/12/29 02:30:40;;;;;;;3.13;0.83;;;20.20;93.70;;;;;;4996488;28;20178;-74
2020/12/29 02:33:08;;;;;;;3.53;1.03;;;20.30;93.30;;;;;;5014810;28;20576;-73
2020/12/29 02:35:35;;;;;;;4.57;0.80;;;20.30;93.20;;;;;;5014238;28;20307;-72
2020/12/29 02:38:02;;;;;;;7.77;1.47;;;20.40;93.00;;;;;;4991457;28;20189;-72
2020/12/29 02:40:30;;;;;;;3.60;0.80;;;20.40;93.20;;;;;;4990829;28;20311;-72
2020/12/29 02:42:57;;;;;;;3.00;0.67;;;20.40;93.30;;;;;;4975680;28;20657;-73
2020/12/29 02:45:24;;;;;;;1.73;0.70;;;20.20;93.00;;;;;;4988715;28;20536;-72
2020/12/29 02:47:52;;;;;;;2.07;0.60;;;20.30;93.20;;;;;;4995325;28;20193;-73
2020/12/29 02:50:19;;;;;;;3.53;0.80;;;20.30;93.40;;;;;;4988353;28;20176;-73
2020/12/29 02:52:46;;;;;;;3.73;0.90;;;20.30;92.70;;;;;;4997154;28;20189;-72
2020/12/29 02:55:13;;;;;;;1.10;0.60;;;20.30;92.80;;;;;;5003543;28;20174;-73
2020/12/29 02:57:41;;;;;;;4.63;1.20;;;20.40;92.80;;;;;;4999318;28;20189;-73
2020/12/29 03:00:08;;;;;;;4.80;0.70;;;20.30;92.70;;;;;;4995113;28;20265;-72
2020/12/29 03:02:35;;;;;;;4.37;0.87;;;20.20;92.50;;;;;;4994208;28;20568;-73
2020/12/29 03:05:03;;;;;;;2.60;0.77;;;20.30;92.40;;;;;;4989454;28;20229;-72
2020/12/29 03:07:30;;;;;;;2.73;1.07;;;20.30;92.50;;;;;;4986884;28;20194;-72
2020/12/29 03:09:57;;;;;;;3.07;1.07;;;20.70;92.20;;;;;;4988166;28;20182;-74
2020/12/29 03:12:25;;;;;;;1.90;0.70;;;20.80;91.80;;;;;;4991956;28;20185;-73
2020/12/29 03:14:52;;;;;;;2.13;0.70;;;21.00;91.70;;;;;;4993363;28;20200;-72
2020/12/29 03:17:20;;;;;;;4.50;0.80;;;21.00;91.00;;;;;;4993941;28;20204;-71
2020/12/29 03:19:53;;;;;;;1.40;0.80;;;21.00;91.00;;;;;;4991150;28;20664;-74
2020/12/29 03:22:20;;;;;;;1.00;0.60;;;21.10;91.30;;;;;;4987830;28;20508;-72
2020/12/29 03:24:47;;;;;;;3.87;0.80;;;21.10;91.20;;;;;;4988771;28;20189;-73
2020/12/29 03:27:15;;;;;;;1.77;0.87;;;21.20;91.30;;;;;;4995496;28;20577;-72
2020/12/29 03:29:42;;;;;;;3.57;1.00;;;21.10;90.50;;;;;;4995378;28;20643;-73
2020/12/29 03:32:10;;;;;;;1.50;0.73;;;21.10;90.90;;;;;;4991046;28;20179;-72
2020/12/29 03:34:38;;;;;;;5.43;1.20;;;21.20;91.00;;;;;;4980833;28;20249;-73
2020/12/29 03:37:09;;;;;;;2.80;0.90;;;21.20;90.70;;;;;;4989103;28;20209;-72
2020/12/29 03:39:38;;;;;;;3.40;1.90;;;21.20;91.10;;;;;;4992978;28;20265;-73
2020/12/29 03:42:06;;;;;;;10.43;6.87;;;21.20;91.20;;;;;;4986616;28;20687;-71
2020/12/29 03:44:34;;;;;;;8.10;4.43;;;21.20;90.80;;;;;;4993399;28;20190;-72
2020/12/29 03:47:03;;;;;;;16.53;9.57;;;21.10;91.00;;;;;;4992166;28;20189;-72
2020/12/29 03:49:35;;;;;;;3.80;2.30;;;21.00;91.10;;;;;;4980727;28;20202;-73
2020/12/29 03:52:03;;;;;;;1.50;0.50;;;21.00;91.30;;;;;;4992613;28;20655;-72
2020/12/29 03:54:30;;;;;;;2.33;0.53;;;21.00;91.10;;;;;;4984792;28;20166;-72
2020/12/29 03:56:58;;;;;;;2.50;1.00;;;21.20;90.80;;;;;;4994667;28;20631;-73
2020/12/29 03:59:25;;;;;;;2.43;0.97;;;21.30;90.90;;;;;;4975800;28;20269;-75
2020/12/29 04:01:52;;;;;;;2.67;0.60;;;21.60;90.70;;;;;;4980332;28;20214;-74
2020/12/29 04:04:20;;;;;;;1.80;0.60;;;21.60;90.50;;;;;;4992965;28;20318;-75
2020/12/29 04:06:47;;;;;;;1.37;0.90;;;21.70;90.20;;;;;;4977163;28;20186;-72
2020/12/29 04:09:14;;;;;;;1.00;0.70;;;21.70;90.00;;;;;;4975719;28;20167;-73
2020/12/29 04:11:42;;;;;;;0.93;0.70;;;21.70;90.10;;;;;;4975550;28;20175;-72
2020/12/29 04:14:09;;;;;;;1.03;0.60;;;21.60;90.00;;;;;;4975620;28;20179;-73
2020/12/29 04:16:36;;;;;;;1.30;0.73;;;21.50;90.30;;;;;;4975576;28;20274;-72
2020/12/29 04:19:04;;;;;;;4.30;1.30;;;21.40;90.30;;;;;;4975452;28;20178;-72
2020/12/29 04:21:31;;;;;;;2.80;1.23;;;21.20;90.90;;;;;;4975364;28;20183;-73
2020/12/29 04:24:02;;;;;;;4.43;0.80;;;21.00;91.10;;;;;;4975377;28;20629;-72
2020/12/29 04:26:29;;;;;;;2.13;0.90;;;20.90;91.10;;;;;;4975146;28;20269;-73
2020/12/29 04:28:56;;;;;;;6.10;1.10;;;20.80;91.60;;;;;;4975491;28;20186;-72
2020/12/29 04:31:24;;;;;;;3.50;1.40;;;20.80;91.30;;;;;;4975626;28;20229;-74
2020/12/29 04:33:51;;;;;;;1.87;1.40;;;20.70;91.30;;;;;;4975112;28;20191;-71
2020/12/29 04:36:19;;;;;;;3.87;1.23;;;20.60;91.30;;;;;;4975281;28;20186;-74
2020/12/29 04:38:46;;;;;;;1.73;1.20;;;20.60;91.80;;;;;;4975418;28;20234;-74
2020/12/29 04:41:17;;;;;;;2.43;1.00;;;20.40;92.20;;;;;;4975171;28;20175;-76
2020/12/29 04:43:45;;;;;;;1.63;1.17;;;20.40;92.40;;;;;;4975801;28;20281;-75
2020/12/29 04:46:12;;;;;;;6.77;3.20;;;20.20;93.10;;;;;;4978121;28;20208;-75
2020/12/29 04:48:40;;;;;;;3.37;1.33;;;20.30;93.60;;;;;;4978611;28;20293;-74
2020/12/29 04:51:09;;;;;;;4.77;1.40;;;20.30;93.50;;;;;;4979271;28;20182;-77
2020/12/29 04:53:37;;;;;;;2.87;1.00;;;20.00;93.20;;;;;;4993901;28;20186;-73
2020/12/29 04:56:09;;;;;;;1.63;0.80;;;20.10;93.10;;;;;;4998239;28;20193;-76
2020/12/29 04:58:37;;;;;;;2.07;1.00;;;20.10;93.00;;;;;;4999196;28;20297;-75
2020/12/29 05:01:08;;;;;;;1.30;0.80;;;20.10;92.90;;;;;;4998149;28;20174;-75
2020/12/29 05:03:49;;;;;;;1.33;0.93;;;20.20;92.80;;;;;;4995292;28;20241;-74
2020/12/29 05:06:17;;;;;;;3.97;1.30;;;20.20;92.40;;;;;;4995086;28;20317;-76
2020/12/29 05:08:49;;;;;;;2.70;1.40;;;20.30;92.30;;;;;;4994737;28;20182;-74
2020/12/29 05:11:18;;;;;;;1.73;1.00;;;20.30;92.40;;;;;;4994716;28;20166;-77
2020/12/29 05:13:47;;;;;;;3.00;0.80;;;20.40;92.40;;;;;;4994690;28;20170;-75
2020/12/29 05:16:15;;;;;;;3.30;1.40;;;20.40;92.40;;;;;;4994559;28;20253;-76
2020/12/29 05:18:43;;;;;;;1.23;0.97;;;20.50;92.30;;;;;;4994185;28;20185;-77
2020/12/29 05:21:11;;;;;;;2.70;1.30;;;20.40;91.80;;;;;;4994270;28;20606;-74
2020/12/29 05:23:39;;;;;;;1.90;1.03;;;20.50;91.80;;;;;;4994460;28;20580;-75
2020/12/29 05:26:06;;;;;;;2.53;0.87;;;20.50;91.60;;;;;;4994354;28;20213;-76
2020/12/29 05:28:36;;;;;;;3.40;0.90;;;20.70;91.50;;;;;;4994391;28;20216;-72
2020/12/29 05:31:05;;;;;;;4.07;0.83;;;20.80;91.10;;;;;;4993975;28;20511;-72
2020/12/29 05:33:33;;;;;;;1.77;0.90;;;20.80;90.90;;;;;;4994263;28;20177;-74
2020/12/29 05:36:02;;;;;;;1.57;0.80;;;20.80;90.60;;;;;;4994029;28;20206;-76
2020/12/29 05:38:29;;;;;;;1.37;0.70;;;20.90;90.60;;;;;;4994394;28;20176;-73
2020/12/29 05:40:59;;;;;;;3.47;0.90;;;20.80;90.50;;;;;;4994401;28;20182;-73
2020/12/29 05:43:33;;;;;;;2.33;0.70;;;20.50;90.70;;;;;;4992540;28;20636;-72
2020/12/29 05:46:13;;;;;;;1.47;0.97;;;20.30;91.10;;;;;;4977354;28;20186;-71
2020/12/29 05:48:40;;;;;;;2.67;0.60;;;20.30;91.20;;;;;;4991728;28;20276;-73
2020/12/29 05:51:14;;;;;;;3.67;0.83;;;20.30;91.50;;;;;;4993141;28;20186;-72
2020/12/29 05:53:43;;;;;;;3.30;0.87;;;20.40;91.40;;;;;;4993330;28;20177;-72
2020/12/29 05:56:11;;;;;;;2.73;0.77;;;20.50;91.20;;;;;;4993093;28;20268;-72
2020/12/29 05:58:39;;;;;;;1.30;0.60;;;20.60;91.10;;;;;;4992581;28;20185;-72
2020/12/29 06:01:06;;;;;;;1.57;0.50;;;20.60;91.20;;;;;;4992589;28;20181;-72
2020/12/29 06:03:35;;;;;;;2.93;0.60;;;20.60;91.30;;;;;;4993352;28;20241;-74
2020/12/29 06:06:08;;;;;;;2.37;0.50;;;20.60;90.90;;;;;;4993402;28;20186;-76
2020/12/29 06:08:42;;;;;;;2.50;0.90;;;20.70;90.90;;;;;;4993140;28;20186;-74
2020/12/29 06:11:22;;;;;;;2.63;0.70;;;20.70;90.90;;;;;;4992789;28;20185;-73
2020/12/29 06:13:50;;;;;;;3.00;0.70;;;20.60;91.10;;;;;;4980160;28;20178;-72
2020/12/29 06:16:18;;;;;;;3.83;0.90;;;20.60;91.10;;;;;;4992910;28;20541;-74
2020/12/29 06:18:47;;;;;;;0.80;0.50;;;20.60;91.30;;;;;;4993241;28;20225;-74
2020/12/29 06:21:14;;;;;;;1.53;0.60;;;20.50;91.20;;;;;;4992847;28;20638;-73
2020/12/29 06:23:50;;;;;;;4.10;0.80;;;20.30;91.70;;;;;;4993175;28;20557;-76
2020/12/29 06:26:19;;;;;;;3.20;0.80;;;20.10;91.90;;;;;;4992137;28;20513;-74
2020/12/29 06:28:53;;;;;;;1.57;0.67;;;20.20;92.20;;;;;;4993090;28;20261;-74
2020/12/29 06:31:28;;;;;;;5.27;0.63;;;20.10;92.40;;;;;;4992668;28;20581;-75
2020/12/29 06:33:58;;;;;;;1.63;0.50;;;20.00;92.40;;;;;;4991928;28;20185;-74
2020/12/29 06:36:28;;;;;;;1.83;0.67;;;20.00;92.50;;;;;;4993243;28;20255;-75
2020/12/29 06:39:03;;;;;;;3.60;0.90;;;20.00;92.80;;;;;;4993021;28;20759;-75
2020/12/29 06:41:33;;;;;;;1.60;0.73;;;20.00;92.70;;;;;;4993090;28;20264;-76
2020/12/29 06:44:03;;;;;;;1.73;0.70;;;20.00;92.50;;;;;;4992944;28;20186;-75
2020/12/29 06:46:31;;;;;;;3.87;0.90;;;20.00;92.70;;;;;;4992467;28;20209;-74
2020/12/29 06:49:18;;;;;;;1.77;0.90;;;20.00;92.70;;;;;;4993039;28;20201;-74
2020/12/29 06:51:47;;;;;;;1.17;0.60;;;20.00;92.60;;;;;;4993173;28;20206;-73
2020/12/29 06:54:41;;;;;;;2.97;0.80;;;20.10;92.40;;;;;;4990229;28;21020;-76
2020/12/29 06:57:08;;;;;;;5.40;0.87;;;20.00;92.50;;;;;;4992592;28;20182;-77
2020/12/29 06:59:40;;;;;;;2.90;1.67;;;20.00;92.50;;;;;;4992775;28;20205;-76
2020/12/29 07:02:23;;;;;;;5.70;1.33;;;20.00;92.60;;;;;;4992468;28;20579;-75
2020/12/29 07:04:54;;;;;;;5.10;1.30;;;19.90;92.90;;;;;;4992480;28;20312;-79
2020/12/29 07:07:33;;;;;;;3.63;0.70;;;19.90;93.00;;;;;;4986365;28;20182;-77
2020/12/29 07:10:11;;;;;;;3.30;0.70;;;19.90;93.40;;;;;;4995279;28;20190;-74
2020/12/29 07:12:45;;;;;;;3.17;0.83;;;19.90;93.70;;;;;;4990944;28;20192;-74
2020/12/29 07:15:16;;;;;;;4.93;0.90;;;19.80;94.40;;;;;;4995825;28;20186;-73
2020/12/29 07:17:58;;;;;;;5.90;1.00;;;19.60;94.40;;;;;;4995744;28;20525;-74
2020/12/29 07:20:30;;;;;;;3.43;0.70;;;19.60;94.50;;;;;;4996011;28;20262;-75
2020/12/29 07:23:08;;;;;;;5.03;1.13;;;19.60;94.30;;;;;;4992993;28;20225;-74
2020/12/29 07:25:37;;;;;;;3.70;1.03;;;19.60;94.40;;;;;;4976460;28;20182;-78
2020/12/29 07:28:08;;;;;;;2.60;1.10;;;19.50;94.40;;;;;;4982509;28;20210;-75
2020/12/29 07:30:36;;;;;;;4.87;0.87;;;19.50;94.30;;;;;;4995746;28;20174;-73
2020/12/29 07:33:06;;;;;;;5.53;0.97;;;19.60;94.20;;;;;;4982784;28;20187;-80
2020/12/29 07:35:35;;;;;;;3.07;0.80;;;19.60;94.30;;;;;;4986403;28;20249;-73
2020/12/29 07:38:14;;;;;;;5.70;0.90;;;19.50;94.20;;;;;;4994117;28;20182;-72
2020/12/29 07:40:42;;;;;;;3.53;0.73;;;19.50;94.40;;;;;;4995634;28;20248;-71
2020/12/29 07:43:10;;;;;;;2.53;0.53;;;19.50;94.50;;;;;;4995665;28;20264;-74
2020/12/29 07:45:38;;;;;;;5.60;1.37;;;19.40;94.50;;;;;;4995331;28;20569;-75
2020/12/29 07:48:07;;;;;;;1.73;0.80;;;19.50;94.70;;;;;;4991031;28;20194;-75
2020/12/29 07:50:37;;;;;;;5.93;0.90;;;19.40;94.80;;;;;;4979404;28;20178;-72
2020/12/29 07:53:05;;;;;;;2.20;0.63;;;19.40;95.00;;;;;;4991101;28;20181;-71
2020/12/29 07:55:33;;;;;;;3.67;1.00;;;19.30;95.00;;;;;;4982699;28;20269;-74
2020/12/29 07:58:09;;;;;;;3.87;1.00;;;19.40;95.20;;;;;;4991684;28;20877;-73
2020/12/29 08:00:38;;;;;;;3.50;1.03;;;19.40;95.00;;;;;;4994563;28;20183;-75
2020/12/29 08:03:06;;;;;;;3.37;0.80;;;19.40;95.10;;;;;;4987284;28;20409;-74
2020/12/29 08:05:36;;;;;;;4.67;0.83;;;19.40;95.10;;;;;;4999734;28;20189;-74
2020/12/29 08:08:08;;;;;;;3.10;0.60;;;19.50;95.10;;;;;;5002733;28;20201;-74
2020/12/29 08:10:38;;;;;;;2.70;0.70;;;19.50;95.10;;;;;;4994525;28;20182;-76
2020/12/29 08:13:07;;;;;;;6.50;0.93;;;19.40;95.20;;;;;;4988257;28;20185;-75
2020/12/29 08:15:36;;;;;;;3.87;0.87;;;19.40;95.30;;;;;;4976996;28;20178;-77
2020/12/29 08:18:20;;;;;;;2.47;0.90;;;19.40;95.40;;;;;;4987702;28;20647;-79
2020/12/29 08:20:58;;;;;;;6.60;1.30;;;19.40;95.10;;;;;;4994525;28;20197;-76
2020/12/29 08:23:29;;;;;;;4.90;1.50;;;19.40;95.20;;;;;;4994624;28;20292;-73
2020/12/29 08:26:03;;;;;;;6.63;1.50;;;19.40;95.40;;;;;;4994864;28;20178;-74
2020/12/29 08:28:33;;;;;;;3.33;1.00;;;19.40;95.40;;;;;;4985388;28;20529;-72
2020/12/29 08:31:04;;;;;;;3.07;0.70;;;19.40;95.50;;;;;;4989268;28;20239;-74
2020/12/29 08:33:32;;;;;;;2.17;0.70;;;19.30;95.50;;;;;;4989374;28;20201;-74
2020/12/29 08:36:04;;;;;;;4.80;0.83;;;19.30;95.60;;;;;;4985277;28;20740;-76
2020/12/29 08:38:43;;;;;;;1.93;0.90;;;19.30;95.70;;;;;;4985053;28;20194;-77
2020/12/29 08:41:13;;;;;;;2.40;0.90;;;19.20;95.70;;;;;;4986334;28;20597;-77
2020/12/29 08:43:51;;;;;;;3.03;0.70;;;19.20;95.80;;;;;;4988128;28;20222;-75
2020/12/29 08:46:23;;;;;;;3.40;0.60;;;19.20;95.90;;;;;;4981457;28;20216;-73
2020/12/29 08:48:57;;;;;;;4.77;1.00;;;19.20;95.90;;;;;;4985353;28;20186;-73
2020/12/29 08:51:28;;;;;;;2.07;0.77;;;19.20;96.20;;;;;;4987531;28;20181;-80
2020/12/29 08:54:09;;;;;;;3.43;0.60;;;19.10;96.50;;;;;;4988253;28;20177;-74
2020/12/29 08:56:37;;;;;;;4.43;0.80;;;19.00;96.80;;;;;;4980078;28;20677;-73
2020/12/29 08:59:19;;;;;;;3.17;0.77;;;19.00;97.10;;;;;;4986920;28;20178;-73
2020/12/29 09:01:49;;;;;;;3.00;0.70;;;18.90;97.60;;;;;;4984252;28;20186;-72
2020/12/29 09:04:30;;;;;;;3.53;0.77;;;18.80;98.10;;;;;;4987555;28;20233;-73
2020/12/29 09:06:57;;;;;;;4.90;0.80;;;18.80;98.50;;;;;;4984017;28;20192;-73
2020/12/29 09:09:25;;;;;;;5.00;1.03;;;18.70;98.80;;;;;;4985687;28;20547;-73
2020/12/29 09:12:15;;;;;;;7.17;1.00;;;18.70;99.00;;;;;;4983774;28;20190;-74
2020/12/29 09:14:56;;;;;;;3.50;1.00;;;18.60;99.20;;;;;;4984081;28;20531;-73
2020/12/29 09:17:26;;;;;;;2.37;0.80;;;18.60;99.60;;;;;;4988404;28;20209;-71
2020/12/29 09:20:16;;;;;;;0.60;0.50;;;18.60;99.80;;;;;;4985442;28;20186;-73
2020/12/29 09:22:56;;;;;;;3.33;1.03;;;18.60;99.80;;;;;;4990297;28;20222;-74
2020/12/29 09:25:34;;;;;;;2.67;0.90;;;18.50;99.90;;;;;;4984176;28;20217;-72
2020/12/29 09:28:12;;;;;;;0.97;0.50;;;18.50;99.90;;;;;;4988121;28;20185;-72
2020/12/29 09:30:41;;;;;;;3.67;1.00;;;18.50;99.90;;;;;;4983480;28;20187;-73
2020/12/29 09:33:09;;;;;;;2.90;1.10;;;18.50;99.90;;;;;;4985630;28;20185;-73
2020/12/29 09:35:37;;;;;;;1.00;0.60;;;18.50;99.90;;;;;;4981854;28;20261;-72
2020/12/29 09:38:11;;;;;;;3.40;1.00;;;18.50;99.90;;;;;;4989713;28;20390;-72
2020/12/29 09:40:38;;;;;;;4.10;0.90;;;18.40;99.90;;;;;;4981842;28;20659;-73
2020/12/29 09:43:06;;;;;;;2.30;0.93;;;18.40;99.90;;;;;;4989232;28;20209;-72
2020/12/29 09:45:33;;;;;;;2.30;0.50;;;18.40;99.90;;;;;;4990427;28;20178;-73
2020/12/29 09:48:00;;;;;;;2.43;0.87;;;18.40;99.90;;;;;;4980076;28;20268;-74
2020/12/29 09:50:28;;;;;;;2.63;0.50;;;18.40;99.90;;;;;;4989780;28;20636;-74
2020/12/29 09:52:55;;;;;;;3.97;0.73;;;18.50;99.90;;;;;;4990847;28;20281;-74
2020/12/29 09:55:22;;;;;;;0.80;0.67;;;18.50;99.90;;;;;;4983718;28;20265;-72
2020/12/29 09:57:50;;;;;;;2.73;1.07;;;18.50;99.90;;;;;;4986546;28;20268;-73
2020/12/29 10:00:17;;;;;;;4.60;1.50;;;18.50;99.90;;;;;;4984408;28;20216;-72
2020/12/29 10:02:44;;;;;;;1.47;0.67;;;18.50;99.90;;;;;;4983377;28;20254;-75
2020/12/29 10:05:12;;;;;;;3.40;1.13;;;18.50;99.90;;;;;;4987926;28;20230;-74
2020/12/29 10:07:39;;;;;;;1.93;0.90;;;18.50;99.90;;;;;;4984230;28;20264;-73
2020/12/29 10:10:06;;;;;;;1.90;1.10;;;18.50;99.90;;;;;;4988474;28;20175;-72
2020/12/29 10:12:33;;;;;;;4.40;1.53;;;18.50;99.90;;;;;;4989456;28;20190;-75
2020/12/29 10:15:01;;;;;;;3.70;1.10;;;18.50;99.90;;;;;;4987419;28;20220;-74
2020/12/29 10:17:28;;;;;;;3.90;1.30;;;18.50;99.90;;;;;;4984131;28;20189;-75
2020/12/29 10:19:56;;;;;;;2.65;0.88;;;18.60;99.90;;;;;;4985981;28;20422;-74
2020/12/29 10:22:26;;;;;;;2.97;0.97;;;18.50;99.90;;;;;;4988635;28;20202;-76
2020/12/29 10:24:53;;;;;;;2.50;0.50;;;18.50;99.90;;;;;;4983319;28;20245;-77
2020/12/29 10:27:21;;;;;;;4.57;1.07;;;18.60;99.90;;;;;;4983970;28;20190;-73
2020/12/29 10:29:48;;;;;;;2.30;0.90;;;18.60;99.90;;;;;;4983853;28;20269;-74
2020/12/29 10:32:20;;;;;;;5.30;1.13;;;18.50;99.90;;;;;;4982768;28;20194;-74
2020/12/29 10:34:48;;;;;;;6.63;1.13;;;18.50;99.90;;;;;;4984863;28;20217;-74
2020/12/29 10:37:16;;;;;;;2.90;1.10;;;18.50;99.90;;;;;;4978254;28;20186;-77
2020/12/29 10:39:43;;;;;;;2.97;0.80;;;18.50;99.90;;;;;;4989269;28;20685;-75
2020/12/29 10:42:11;;;;;;;2.27;0.77;;;18.50;99.90;;;;;;4986851;28;20543;-73
2020/12/29 10:44:38;;;;;;;3.80;1.27;;;18.50;99.90;;;;;;4982752;28;20188;-74
2020/12/29 10:47:06;;;;;;;3.23;0.97;;;18.50;99.90;;;;;;4992535;28;20186;-75
2020/12/29 10:49:33;;;;;;;3.47;1.07;;;18.50;99.90;;;;;;4993418;28;20663;-73
2020/12/29 10:52:00;;;;;;;7.53;1.50;;;18.50;99.90;;;;;;4998424;28;20578;-74
2020/12/29 10:54:28;;;;;;;6.63;1.50;;;18.50;99.90;;;;;;4988163;28;20196;-74
2020/12/29 10:56:55;;;;;;;10.40;1.20;;;18.50;99.90;;;;;;4990777;28;20189;-74
2020/12/29 10:59:22;;;;;;;8.27;1.90;;;18.50;99.90;;;;;;4993382;28;20183;-73
2020/12/29 11:01:55;;;;;;;4.57;1.70;;;18.60;99.90;;;;;;4990209;28;20277;-72
2020/12/29 11:04:26;;;;;;;8.80;1.70;;;18.60;99.90;;;;;;4995838;28;20641;-73
2020/12/29 11:06:53;;;;;;;7.80;1.77;;;18.60;99.90;;;;;;4992909;28;20205;-73
2020/12/29 11:09:20;;;;;;;9.97;1.60;;;18.60;99.90;;;;;;4989050;28;20225;-72
2020/12/29 11:11:49;;;;;;;8.30;1.97;;;18.60;99.90;;;;;;4985761;28;20202;-73
2020/12/29 11:14:16;;;;;;;9.03;2.40;;;18.70;99.90;;;;;;4983018;28;20217;-73
2020/12/29 11:16:48;;;;;;;7.87;1.90;;;18.70;99.90;;;;;;4989419;28;20178;-73
2020/12/29 11:19:15;;;;;;;9.10;2.17;;;18.80;99.90;;;;;;4992935;28;20241;-73
2020/12/29 11:21:46;;;;;;;14.13;3.00;;;18.80;99.90;;;;;;4990851;28;20190;-73
2020/12/29 11:24:13;;;;;;;12.70;2.90;;;18.90;99.90;;;;;;4987589;28;20232;-75
2020/12/29 11:26:40;;;;;;;16.10;2.63;;;19.00;99.90;;;;;;4989198;28;20201;-73
2020/12/29 11:29:08;;;;;;;9.50;2.20;;;19.10;99.90;;;;;;4980981;28;20537;-73
2020/12/29 11:31:35;;;;;;;12.57;2.07;;;19.10;99.90;;;;;;4988483;28;20192;-72
2020/12/29 11:34:02;;;;;;;9.57;1.60;;;19.00;99.90;;;;;;4988476;28;20656;-73
2020/12/29 11:36:30;;;;;;;6.67;1.60;;;19.00;99.90;;;;;;4988623;28;20644;-74
2020/12/29 11:38:57;;;;;;;8.40;1.80;;;19.00;99.90;;;;;;4994408;28;20249;-76
2020/12/29 11:41:25;;;;;;;7.07;1.37;;;19.00;99.90;;;;;;4988911;28;20189;-73
2020/12/29 11:43:52;;;;;;;8.00;1.53;;;19.00;99.90;;;;;;4986964;28;20574;-73
2020/12/29 11:46:19;;;;;;;8.47;1.73;;;19.00;99.90;;;;;;4992696;28;20212;-74
2020/12/29 11:48:47;;;;;;;9.30;1.93;;;19.00;99.90;;;;;;4989449;28;20648;-72
2020/12/29 11:51:15;;;;;;;5.93;1.33;;;18.90;99.90;;;;;;4989499;28;20178;-72
2020/12/29 11:53:42;;;;;;;6.50;0.90;;;18.90;99.90;;;;;;4986437;28;20193;-72
2020/12/29 11:56:13;;;;;;;8.27;1.33;;;18.80;99.90;;;;;;4987189;28;20666;-76
2020/12/29 11:58:40;;;;;;;6.73;1.20;;;18.70;99.90;;;;;;4986718;28;20201;-73
2020/12/29 12:01:08;;;;;;;6.00;1.30;;;18.70;99.90;;;;;;4991922;28;20182;-73
2020/12/29 12:03:35;;;;;;;11.27;1.80;;;18.70;99.90;;;;;;4989337;28;20221;-74
2020/12/29 12:06:02;;;;;;;12.80;2.53;;;18.70;99.90;;;;;;4990303;28;20269;-73
2020/12/29 12:08:30;;;;;;;14.57;2.67;;;18.70;99.90;;;;;;4981403;28;20274;-72
2020/12/29 12:10:57;;;;;;;14.17;2.40;;;18.70;99.90;;;;;;4989494;28;20171;-72
2020/12/29 12:13:24;;;;;;;25.37;3.10;;;18.70;99.90;;;;;;4983540;28;20192;-73
2020/12/29 12:15:52;;;;;;;15.53;2.97;;;18.70;99.90;;;;;;4990404;28;20646;-72
2020/12/29 12:18:19;;;;;;;14.00;2.90;;;18.80;99.90;;;;;;4990921;28;22229;-72
2020/12/29 12:20:50;;;;;;;15.07;2.70;;;18.80;99.90;;;;;;4992513;28;20185;-72
2020/12/29 12:23:18;;;;;;;14.03;2.50;;;18.80;99.90;;;;;;4988013;28;20221;-73
2020/12/29 12:25:45;;;;;;;15.07;2.87;;;18.80;99.90;;;;;;4983666;28;20186;-75
2020/12/29 12:28:12;;;;;;;15.60;3.17;;;18.90;99.90;;;;;;4988612;28;20288;-73
2020/12/29 12:30:40;;;;;;;19.07;3.50;;;18.80;99.90;;;;;;4985255;28;20186;-73
2020/12/29 12:33:08;;;;;;;22.67;3.10;;;18.70;99.90;;;;;;4984906;28;20202;-76
2020/12/29 12:35:35;;;;;;;19.30;2.93;;;18.70;99.90;;;;;;4986432;28;20195;-72
2020/12/29 12:38:03;;;;;;;23.03;4.13;;;18.60;99.90;;;;;;4984689;28;20204;-72
2020/12/29 12:40:30;;;;;;;19.23;3.23;;;18.60;99.90;;;;;;4988627;28;20190;-71
2020/12/29 12:42:58;;;;;;;21.77;3.30;;;18.70;99.90;;;;;;4989053;28;20225;-75
2020/12/29 12:45:25;;;;;;;21.07;3.53;;;18.60;99.90;;;;;;4986098;28;20596;-75
2020/12/29 12:47:52;;;;;;;25.47;3.50;;;18.60;99.90;;;;;;4990013;28;20191;-72
2020/12/29 12:50:21;;;;;;;21.80;3.53;;;18.70;99.90;;;;;;4985103;28;20170;-72
2020/12/29 12:52:49;;;;;;;15.07;2.67;;;18.70;99.90;;;;;;4988653;28;20249;-71
2020/12/29 12:55:17;;;;;;;21.10;3.23;;;18.60;99.90;;;;;;4988434;28;20189;-72
2020/12/29 12:57:45;;;;;;;19.70;3.27;;;18.70;99.90;;;;;;4981597;28;20193;-72
2020/12/29 13:00:12;;;;;;;21.20;3.03;;;18.70;99.90;;;;;;4988857;28;20193;-72